Terminal Aerodrome Forecast
Issued by NWS

Home | Current Version | Previous Version | Text Only | Print | Product List | Glossary On
Versions: 1 2 3 4 5 6 7 8 9 10 11 12 13 14 15 16 17 18 19 20 21 22 23 24 25 26 27 28 29 30 31 32 33 34
804
FTUS44 KFWD 251411 AAB
TAFFTW
TAF AMD
KFTW 251411Z 2514/2612 34006KT 4SM -RA VCTS BKN012 BKN050CB
      TEMPO 2514/2516 3SM RA BKN008
     FM251600 15006KT P6SM VCSH BKN025
     FM251800 16007KT P6SM RA VCTS BKN035 OVC060CB
     FM252200 03008KT P6SM RA VCTS BKN040CB OVC100
     FM260200 01013KT P6SM -SHRA BKN020=

USA.gov is the U.S. government's official web portal to all federal, state and local government web resources and services.